Time;durP1;ratioP1;P1;durP2;ratioP2;P2;SDS_P1;SDS_P2;PMS_P1;PMS_P2;Temp;Humidity;BMP_temperature;BMP_pressure;BME280_temperature;BME280_humidity;BME280_pressure;Samples;Min_cycle;Max_cycle;Signal;HPM_P1;HPM_P2
2023/07/19 00:00:38;;;;;;;2.93;2.63;;;17.00;99.90;;;;;;5029324;28;20776;-69
2023/07/19 00:03:04;;;;;;;6.30;3.20;;;17.00;99.90;;;;;;5031246;28;20183;-75
2023/07/19 00:05:30;;;;;;;2.80;1.77;;;17.00;99.90;;;;;;5029654;28;20833;-76
2023/07/19 00:07:56;;;;;;;2.87;2.00;;;17.00;99.90;;;;;;5030350;28;20562;-70
2023/07/19 00:10:22;;;;;;;4.00;2.73;;;16.90;99.90;;;;;;5031959;28;20491;-75
2023/07/19 00:12:48;;;;;;;3.23;3.00;;;16.70;99.90;;;;;;5030761;28;20446;-72
2023/07/19 00:15:14;;;;;;;3.00;2.10;;;16.50;99.90;;;;;;5026819;28;20518;-71
2023/07/19 00:17:42;;;;;;;4.13;2.30;;;16.40;99.90;;;;;;5019562;28;20218;-76
2023/07/19 00:20:08;;;;;;;2.70;2.20;;;16.40;99.90;;;;;;5036652;28;20398;-70
2023/07/19 00:22:33;;;;;;;3.53;2.70;;;16.40;99.90;;;;;;5035571;28;20438;-75
2023/07/19 00:24:59;;;;;;;3.40;2.60;;;16.30;99.90;;;;;;5033185;28;20437;-77
2023/07/19 00:27:25;;;;;;;2.30;2.03;;;16.20;99.90;;;;;;5032929;28;20571;-71
2023/07/19 00:29:51;;;;;;;3.30;2.40;;;16.20;99.90;;;;;;5034700;28;20175;-77
2023/07/19 00:32:17;;;;;;;3.10;2.53;;;16.20;99.90;;;;;;5029954;28;20182;-72
2023/07/19 00:34:43;;;;;;;7.03;2.17;;;16.20;99.90;;;;;;5028972;28;20195;-75
2023/07/19 00:37:08;;;;;;;4.10;2.13;;;16.20;99.90;;;;;;5033073;28;20457;-72
2023/07/19 00:39:34;;;;;;;4.70;2.60;;;16.30;99.90;;;;;;5036023;28;20536;-69
2023/07/19 00:42:01;;;;;;;2.50;2.30;;;16.30;1.00;;;;;;5034294;28;20180;-70
2023/07/19 00:44:27;;;;;;;3.63;3.00;;;16.30;1.00;;;;;;5034688;28;20178;-76
2023/07/19 00:46:53;;;;;;;2.43;2.23;;;16.30;1.00;;;;;;5029013;28;20462;-74
2023/07/19 00:49:18;;;;;;;3.40;2.70;;;16.30;1.00;;;;;;5048424;28;20199;-76
2023/07/19 00:51:45;;;;;;;3.77;2.60;;;16.30;1.00;;;;;;5032188;28;20432;-70
2023/07/19 00:54:10;;;;;;;3.20;2.60;;;16.30;1.00;;;;;;5029746;28;20196;-75
2023/07/19 00:56:37;;;;;;;3.00;2.60;;;16.30;1.00;;;;;;5015074;28;20784;-77
2023/07/19 00:59:04;;;;;;;2.80;2.60;;;16.30;1.00;;;;;;5026671;28;20168;-70
2023/07/19 01:01:29;;;;;;;2.40;2.30;;;16.30;1.00;;;;;;5035765;28;20426;-74
2023/07/19 01:03:55;;;;;;;3.43;2.50;;;16.30;1.00;;;;;;5036875;28;20452;-77
2023/07/19 01:06:21;;;;;;;2.60;2.30;;;16.20;1.00;;;;;;5032295;28;20198;-77
2023/07/19 01:08:48;;;;;;;3.23;2.57;;;16.20;1.00;;;;;;5016170;28;20403;-73
2023/07/19 01:11:13;;;;;;;7.90;2.83;;;16.20;1.00;;;;;;5016581;28;20182;-77
2023/07/19 01:13:52;;;;;;;3.10;2.90;;;16.20;1.00;;;;;;5017093;28;20740;-77
2023/07/19 01:16:19;;;;;;;4.33;3.10;;;16.20;1.00;;;;;;5017025;28;20219;-73
2023/07/19 01:18:45;;;;;;;4.63;2.53;;;16.20;1.00;;;;;;5016205;28;20439;-71
2023/07/19 01:21:11;;;;;;;5.03;2.70;;;16.20;1.00;;;;;;5016288;28;20395;-75
2023/07/19 01:23:36;;;;;;;3.70;2.50;;;16.20;1.00;;;;;;5016146;28;20439;-77
2023/07/19 01:26:03;;;;;;;2.70;2.50;;;16.20;1.00;;;;;;5018542;28;20648;-74
2023/07/19 01:28:29;;;;;;;3.17;2.57;;;16.20;1.00;;;;;;5014349;28;20411;-78
2023/07/19 01:30:55;;;;;;;3.03;2.33;;;16.20;1.00;;;;;;5024752;28;20909;-78
2023/07/19 01:33:21;;;;;;;3.13;2.73;;;16.20;1.00;;;;;;5033642;28;20514;-73
2023/07/19 01:35:47;;;;;;;2.90;2.70;;;16.20;1.00;;;;;;5031540;28;20218;-74
2023/07/19 01:38:12;;;;;;;4.10;2.80;;;16.20;1.00;;;;;;5035083;28;20187;-76
2023/07/19 01:40:38;;;;;;;3.07;1.93;;;16.20;1.00;;;;;;5032009;28;20179;-69
2023/07/19 01:43:04;;;;;;;2.43;2.03;;;16.10;1.00;;;;;;5034384;28;20191;-70
2023/07/19 01:45:30;;;;;;;4.23;2.00;;;16.10;1.00;;;;;;5030013;28;20191;-70
2023/07/19 01:47:55;;;;;;;2.20;2.10;;;16.00;1.00;;;;;;5032708;28;20704;-70
2023/07/19 01:50:21;;;;;;;3.30;2.00;;;16.00;1.00;;;;;;5029111;28;20194;-78
2023/07/19 01:52:48;;;;;;;7.10;2.47;;;16.00;1.00;;;;;;5033903;28;20186;-75
2023/07/19 01:55:14;;;;;;;2.50;2.30;;;16.00;1.00;;;;;;5031935;28;21055;-71
2023/07/19 01:57:39;;;;;;;2.60;2.40;;;16.00;1.00;;;;;;5030375;28;20505;-71
2023/07/19 02:00:06;;;;;;;4.43;2.20;;;15.90;1.00;;;;;;5032604;28;20422;-74
2023/07/19 02:02:31;;;;;;;3.37;3.17;;;15.90;1.00;;;;;;5031547;28;20172;-74
2023/07/19 02:04:57;;;;;;;3.57;2.10;;;15.90;1.00;;;;;;5030328;28;20768;-72
2023/07/19 02:07:23;;;;;;;3.80;2.20;;;15.90;1.00;;;;;;5033105;28;20226;-71
2023/07/19 02:09:48;;;;;;;3.20;2.30;;;15.80;1.00;;;;;;5034699;28;20184;-78
2023/07/19 02:12:14;;;;;;;3.40;2.30;;;15.80;1.00;;;;;;5031184;28;20222;-71
2023/07/19 02:14:41;;;;;;;2.97;2.43;;;15.80;1.00;;;;;;5031738;28;20245;-71
2023/07/19 02:17:07;;;;;;;2.80;2.43;;;15.70;1.00;;;;;;5031618;28;20183;-80
2023/07/19 02:19:32;;;;;;;2.90;2.60;;;15.70;1.00;;;;;;5034058;28;20780;-75
2023/07/19 02:21:58;;;;;;;8.57;2.87;;;15.70;1.00;;;;;;5032821;28;20183;-71
2023/07/19 02:24:24;;;;;;;4.50;2.70;;;15.70;1.00;;;;;;5032372;28;20180;-71
2023/07/19 02:26:49;;;;;;;4.97;4.17;;;15.70;1.00;;;;;;5033090;28;20274;-71
2023/07/19 02:29:15;;;;;;;3.40;2.60;;;15.70;1.00;;;;;;5029909;28;21866;-80
2023/07/19 02:31:41;;;;;;;2.73;2.53;;;15.70;1.00;;;;;;5029575;28;20184;-80
2023/07/19 02:34:06;;;;;;;2.57;2.37;;;15.60;1.00;;;;;;5032523;28;20200;-80
2023/07/19 02:36:36;;;;;;;2.80;2.60;;;15.60;1.00;;;;;;5033282;28;20199;-78
2023/07/19 02:39:03;;;;;;;4.90;3.30;;;15.60;1.00;;;;;;5032636;28;20424;-76
2023/07/19 02:41:30;;;;;;;2.63;2.50;;;15.60;1.00;;;;;;5030890;28;20430;-80
2023/07/19 02:43:55;;;;;;;4.00;3.70;;;15.60;1.00;;;;;;5031858;28;20418;-81
2023/07/19 02:46:21;;;;;;;4.13;2.50;;;15.60;1.00;;;;;;5027969;28;20950;-80
2023/07/19 02:48:47;;;;;;;3.73;2.53;;;15.70;1.00;;;;;;5033228;28;20202;-77
2023/07/19 02:51:12;;;;;;;4.00;2.70;;;15.70;1.00;;;;;;5029399;28;20700;-80
2023/07/19 02:53:38;;;;;;;3.00;2.80;;;15.60;1.00;;;;;;5031635;28;20179;-71
2023/07/19 02:56:04;;;;;;;5.73;3.07;;;15.60;1.00;;;;;;5033210;28;20265;-79
2023/07/19 02:58:30;;;;;;;2.70;2.50;;;15.60;1.00;;;;;;5030059;28;20176;-71
2023/07/19 03:00:56;;;;;;;4.73;3.20;;;15.60;1.00;;;;;;5030495;28;20437;-79
2023/07/19 03:03:22;;;;;;;3.70;2.73;;;15.60;1.00;;;;;;5033191;28;20182;-71
2023/07/19 03:05:48;;;;;;;6.10;3.13;;;15.60;1.00;;;;;;5032674;28;20651;-73
2023/07/19 03:08:13;;;;;;;3.87;2.47;;;15.60;1.00;;;;;;5017300;28;20720;-80
2023/07/19 03:10:39;;;;;;;4.27;3.50;;;15.60;1.00;;;;;;5014212;28;20406;-74
2023/07/19 03:13:05;;;;;;;4.77;3.60;;;15.60;1.00;;;;;;5029627;28;20672;-79
2023/07/19 03:15:33;;;;;;;9.00;3.30;;;15.60;1.00;;;;;;5027190;28;20206;-77
2023/07/19 03:17:59;;;;;;;4.10;3.83;;;15.60;1.00;;;;;;5034356;28;20281;-73
2023/07/19 03:20:25;;;;;;;2.87;2.67;;;15.60;1.00;;;;;;5026806;28;20438;-77
2023/07/19 03:22:51;;;;;;;3.33;3.03;;;15.60;1.00;;;;;;5014410;28;20435;-79
2023/07/19 03:25:17;;;;;;;6.03;3.57;;;15.50;1.00;;;;;;5012341;28;20263;-73
2023/07/19 03:27:43;;;;;;;7.50;3.10;;;15.50;1.00;;;;;;5013786;28;20207;-78
2023/07/19 03:30:09;;;;;;;3.40;2.93;;;15.50;1.00;;;;;;5030588;28;20175;-79
2023/07/19 03:32:35;;;;;;;5.27;3.97;;;15.50;1.00;;;;;;5031032;28;20262;-70
2023/07/19 03:35:00;;;;;;;2.97;2.77;;;15.50;1.00;;;;;;5032470;28;20553;-74
2023/07/19 03:37:26;;;;;;;5.93;3.80;;;15.50;1.00;;;;;;5031319;28;20245;-80
2023/07/19 03:39:52;;;;;;;5.03;3.50;;;15.50;1.00;;;;;;5030585;28;20605;-75
2023/07/19 03:42:17;;;;;;;4.67;3.97;;;15.50;1.00;;;;;;5030533;28;20201;-73
2023/07/19 03:44:43;;;;;;;5.07;3.47;;;15.40;1.00;;;;;;5029655;28;20525;-69
2023/07/19 03:47:09;;;;;;;3.80;3.47;;;15.30;1.00;;;;;;5030461;28;20541;-74
2023/07/19 03:49:34;;;;;;;8.50;3.67;;;15.30;1.00;;;;;;5031064;28;20191;-70
2023/07/19 03:52:00;;;;;;;5.10;3.93;;;15.30;1.00;;;;;;5030223;28;20229;-80
2023/07/19 03:54:26;;;;;;;6.50;3.43;;;15.30;1.00;;;;;;5030724;28;20230;-69
2023/07/19 03:56:51;;;;;;;3.50;3.20;;;15.30;1.00;;;;;;5031541;28;20568;-79
2023/07/19 03:59:17;;;;;;;4.87;4.07;;;15.40;1.00;;;;;;5029803;28;20599;-70
2023/07/19 04:01:43;;;;;;;4.63;3.43;;;15.40;1.00;;;;;;5027086;28;20206;-69
2023/07/19 04:04:09;;;;;;;3.93;3.70;;;15.40;1.00;;;;;;5029283;28;20184;-72
2023/07/19 04:06:34;;;;;;;6.07;3.60;;;15.40;1.00;;;;;;5031551;28;20207;-70
2023/07/19 04:09:00;;;;;;;6.20;3.30;;;15.40;1.30;;;;;;5031164;28;20183;-71
2023/07/19 04:11:28;;;;;;;3.90;3.60;;;15.40;2.70;;;;;;5031482;28;20910;-79
2023/07/19 04:13:54;;;;;;;3.47;3.17;;;15.40;3.60;;;;;;5027870;28;20225;-69
2023/07/19 04:16:21;;;;;;;3.80;3.50;;;15.30;9.60;;;;;;5029228;28;20438;-70
2023/07/19 04:18:47;;;;;;;5.53;3.23;;;15.40;17.90;;;;;;5032652;28;20262;-76
2023/07/19 04:21:12;;;;;;;5.37;3.80;;;15.40;24.70;;;;;;5029409;28;20466;-78
2023/07/19 04:23:38;;;;;;;10.30;3.40;;;15.40;28.20;;;;;;5032454;28;20183;-79
2023/07/19 04:26:05;;;;;;;4.20;3.83;;;15.40;34.80;;;;;;5031246;28;20541;-75
2023/07/19 04:28:31;;;;;;;4.07;3.67;;;15.40;44.00;;;;;;5029377;28;20175;-75
2023/07/19 04:30:57;;;;;;;4.43;4.00;;;15.50;53.10;;;;;;5029843;28;20434;-69
2023/07/19 04:33:23;;;;;;;4.33;3.93;;;15.60;60.70;;;;;;5031880;28;20521;-70
2023/07/19 04:35:50;;;;;;;5.23;3.63;;;15.60;61.80;;;;;;5030451;28;20342;-74
2023/07/19 04:38:16;;;;;;;7.23;5.00;;;15.50;53.40;;;;;;5030938;28;20529;-79
2023/07/19 04:40:42;;;;;;;6.13;3.73;;;15.50;45.20;;;;;;5032453;28;20589;-77
2023/07/19 04:43:07;;;;;;;7.20;4.40;;;15.50;51.20;;;;;;5029292;28;20435;-69
2023/07/19 04:45:33;;;;;;;5.23;4.83;;;15.60;56.40;;;;;;5025685;28;20183;-72
2023/07/19 04:47:59;;;;;;;8.90;5.00;;;15.60;56.10;;;;;;5032282;28;20207;-69
2023/07/19 04:50:25;;;;;;;10.80;6.20;;;15.60;52.00;;;;;;5029644;28;20226;-79
2023/07/19 04:52:51;;;;;;;12.47;6.30;;;15.60;42.20;;;;;;5031318;28;20179;-79
2023/07/19 04:55:17;;;;;;;10.10;5.43;;;15.50;30.90;;;;;;5017386;28;20303;-72
2023/07/19 04:57:43;;;;;;;4.63;4.20;;;15.60;29.90;;;;;;5031498;28;20528;-67
2023/07/19 05:00:11;;;;;;;6.17;4.07;;;15.60;30.10;;;;;;5030747;28;20168;-76
2023/07/19 05:02:41;;;;;;;12.57;5.60;;;15.50;21.70;;;;;;5021322;28;20176;-74
2023/07/19 05:05:07;;;;;;;3.43;3.23;;;15.50;18.90;;;;;;5034196;28;20481;-74
2023/07/19 05:07:37;;;;;;;4.90;4.50;;;15.40;19.60;;;;;;5035115;28;20458;-74
2023/07/19 05:10:04;;;;;;;14.33;4.00;;;15.50;23.80;;;;;;5035376;28;20402;-73
2023/07/19 05:12:32;;;;;;;4.50;4.10;;;15.50;26.70;;;;;;5020316;28;20519;-75
2023/07/19 05:14:58;;;;;;;8.57;4.53;;;15.50;31.20;;;;;;5033042;28;20461;-75
2023/07/19 05:17:24;;;;;;;6.87;5.00;;;15.50;36.90;;;;;;5030463;28;20482;-71
2023/07/19 05:19:50;;;;;;;9.10;4.53;;;15.50;37.60;;;;;;5032155;28;20184;-76
2023/07/19 05:22:16;;;;;;;4.70;4.23;;;15.50;37.70;;;;;;5033535;28;20699;-74
2023/07/19 05:24:42;;;;;;;16.27;5.33;;;15.50;36.70;;;;;;5035833;28;20168;-66
2023/07/19 05:27:08;;;;;;;5.70;4.70;;;15.50;37.20;;;;;;5035124;28;20270;-74
2023/07/19 05:29:34;;;;;;;5.17;4.50;;;15.50;38.50;;;;;;5035990;28;20485;-71
2023/07/19 05:32:00;;;;;;;8.33;3.90;;;15.50;40.30;;;;;;5020480;28;20184;-74
2023/07/19 05:34:26;;;;;;;4.30;3.90;;;15.50;38.60;;;;;;5018923;28;20535;-71
2023/07/19 05:36:52;;;;;;;6.20;4.87;;;15.50;41.50;;;;;;5022259;28;20542;-66
2023/07/19 05:39:17;;;;;;;10.33;5.03;;;15.60;50.40;;;;;;5015310;28;20242;-74
2023/07/19 05:41:43;;;;;;;7.13;3.87;;;15.60;53.70;;;;;;5019609;28;20824;-75
2023/07/19 05:44:09;;;;;;;5.53;4.43;;;15.60;55.50;;;;;;5034159;28;20183;-75
2023/07/19 05:46:36;;;;;;;4.93;4.33;;;15.60;57.10;;;;;;5032611;28;20234;-75
2023/07/19 05:49:02;;;;;;;10.10;4.53;;;15.50;53.50;;;;;;5025653;28;20187;-69
2023/07/19 05:51:28;;;;;;;4.90;3.97;;;15.50;55.40;;;;;;5034669;28;20417;-78
2023/07/19 05:53:54;;;;;;;5.53;3.70;;;15.50;61.50;;;;;;5026207;28;20923;-67
2023/07/19 05:56:21;;;;;;;7.30;3.83;;;15.60;66.00;;;;;;5030757;28;20183;-67
2023/07/19 05:58:47;;;;;;;7.33;3.97;;;15.60;68.60;;;;;;5034546;28;20642;-72
2023/07/19 06:01:17;;;;;;;5.40;3.50;;;15.50;69.50;;;;;;5034129;28;20407;-66
2023/07/19 06:03:43;;;;;;;4.50;4.10;;;15.50;64.70;;;;;;5033831;28;20438;-74
2023/07/19 06:06:09;;;;;;;9.70;3.87;;;15.40;64.70;;;;;;5033797;28;20504;-74
2023/07/19 06:08:34;;;;;;;5.53;3.87;;;15.50;68.70;;;;;;5035108;28;20918;-75
2023/07/19 06:11:00;;;;;;;7.83;4.60;;;15.50;74.90;;;;;;5033065;28;20271;-75
2023/07/19 06:13:26;;;;;;;7.27;4.60;;;15.60;79.00;;;;;;5034993;28;20179;-72
2023/07/19 06:15:52;;;;;;;11.83;7.90;;;15.70;84.50;;;;;;5034071;28;20199;-75
2023/07/19 06:18:18;;;;;;;18.87;8.10;;;15.70;84.50;;;;;;5032739;28;20458;-74
2023/07/19 06:20:43;;;;;;;15.47;6.73;;;15.80;84.90;;;;;;5035002;28;20198;-67
2023/07/19 06:23:09;;;;;;;11.90;6.97;;;15.80;83.50;;;;;;5033575;28;20179;-66
2023/07/19 06:25:35;;;;;;;8.93;5.13;;;15.80;77.60;;;;;;5033830;28;20172;-73
2023/07/19 06:28:00;;;;;;;8.70;4.43;;;15.80;73.00;;;;;;5033632;28;20564;-76
2023/07/19 06:30:26;;;;;;;13.87;3.83;;;15.80;62.10;;;;;;5034192;28;20262;-68
2023/07/19 06:32:52;;;;;;;12.27;4.10;;;15.70;38.20;;;;;;5034721;28;20195;-67
2023/07/19 06:35:17;;;;;;;16.40;4.27;;;15.60;23.00;;;;;;5033031;28;20203;-69
2023/07/19 06:37:43;;;;;;;4.57;4.17;;;15.50;15.90;;;;;;5033131;28;20286;-66
2023/07/19 06:40:09;;;;;;;3.90;3.27;;;15.50;16.50;;;;;;5034680;28;20247;-76
2023/07/19 06:42:36;;;;;;;5.50;4.40;;;15.50;15.70;;;;;;5034376;28;20250;-77
2023/07/19 06:45:03;;;;;;;7.93;4.10;;;15.50;22.90;;;;;;5034211;28;20406;-71
2023/07/19 06:47:29;;;;;;;5.73;4.10;;;15.60;27.50;;;;;;5033457;28;20434;-76
2023/07/19 06:49:56;;;;;;;6.73;3.80;;;15.60;37.80;;;;;;5034455;28;20421;-67
2023/07/19 06:52:23;;;;;;;5.73;3.60;;;15.60;34.30;;;;;;5033791;28;20663;-77
2023/07/19 06:54:49;;;;;;;3.40;3.03;;;15.60;28.50;;;;;;5019523;28;20455;-73
2023/07/19 06:57:15;;;;;;;7.30;4.13;;;15.70;28.20;;;;;;5013614;28;20460;-67
2023/07/19 06:59:41;;;;;;;6.97;3.80;;;15.70;29.50;;;;;;5031022;28;20473;-77
2023/07/19 07:02:08;;;;;;;5.90;4.17;;;15.70;29.10;;;;;;5034020;28;20170;-74
2023/07/19 07:04:33;;;;;;;10.00;5.53;;;15.70;28.30;;;;;;5034268;28;20170;-74
2023/07/19 07:06:59;;;;;;;6.07;3.50;;;15.70;19.90;;;;;;5032511;28;20418;-72
2023/07/19 07:09:25;;;;;;;6.03;4.07;;;15.70;16.90;;;;;;5034089;28;20195;-77
2023/07/19 07:11:51;;;;;;;8.77;4.10;;;15.70;17.30;;;;;;5033783;28;20175;-77
2023/07/19 07:14:17;;;;;;;8.93;3.63;;;15.70;16.00;;;;;;5017100;28;20451;-72
2023/07/19 07:16:42;;;;;;;5.07;3.60;;;15.80;19.40;;;;;;5012137;28;20188;-66
2023/07/19 07:19:08;;;;;;;8.23;3.27;;;15.80;18.90;;;;;;5012592;28;20180;-67
2023/07/19 07:21:34;;;;;;;3.30;3.00;;;15.90;21.30;;;;;;5013983;28;20164;-68
2023/07/19 07:23:59;;;;;;;3.47;2.83;;;15.90;17.10;;;;;;5013436;28;20165;-72
2023/07/19 07:26:25;;;;;;;4.20;2.97;;;15.90;9.10;;;;;;5018451;28;20564;-76
2023/07/19 07:28:51;;;;;;;4.20;2.67;;;16.00;7.50;;;;;;5033627;28;20167;-71
2023/07/19 07:31:17;;;;;;;4.80;2.37;;;16.00;5.60;;;;;;5033038;28;20163;-73
2023/07/19 07:33:42;;;;;;;3.10;2.80;;;16.10;3.10;;;;;;5033658;28;20218;-67
2023/07/19 07:36:08;;;;;;;3.30;3.00;;;15.90;1.00;;;;;;5032511;28;20458;-77
2023/07/19 07:38:34;;;;;;;4.03;2.77;;;15.90;1.00;;;;;;5033551;28;20656;-66
2023/07/19 07:41:01;;;;;;;3.97;2.23;;;15.80;1.00;;;;;;5032609;28;20207;-66
2023/07/19 07:43:29;;;;;;;2.47;2.27;;;15.80;1.00;;;;;;5033439;28;20168;-75
2023/07/19 07:45:55;;;;;;;3.23;2.60;;;15.70;1.00;;;;;;5032538;28;20407;-68
2023/07/19 07:48:22;;;;;;;3.33;3.00;;;15.70;1.00;;;;;;5032579;28;20445;-70
2023/07/19 07:50:52;;;;;;;5.53;2.43;;;15.70;1.00;;;;;;5033147;28;20417;-75
2023/07/19 07:53:21;;;;;;;3.83;2.70;;;15.80;1.00;;;;;;5031993;28;20915;-70
2023/07/19 07:55:48;;;;;;;5.00;2.47;;;15.80;1.00;;;;;;5029861;28;20571;-73
2023/07/19 07:58:14;;;;;;;2.30;2.10;;;15.90;1.00;;;;;;5014904;28;20436;-68
2023/07/19 08:00:41;;;;;;;3.20;2.90;;;15.80;1.00;;;;;;5012979;28;20417;-71
2023/07/19 08:03:07;;;;;;;3.40;2.10;;;15.70;1.00;;;;;;5029736;28;20627;-75
2023/07/19 08:05:33;;;;;;;4.40;2.33;;;15.70;1.00;;;;;;5028334;28;20430;-73
2023/07/19 08:07:59;;;;;;;2.50;2.30;;;15.70;1.00;;;;;;5032737;28;20426;-67
2023/07/19 08:10:25;;;;;;;2.10;2.00;;;15.70;1.00;;;;;;5032021;28;20699;-75
2023/07/19 08:12:50;;;;;;;2.60;2.40;;;15.70;1.00;;;;;;5033462;28;20258;-68
2023/07/19 08:15:16;;;;;;;2.50;2.30;;;15.80;1.00;;;;;;5031100;28;20200;-74
2023/07/19 08:17:42;;;;;;;3.97;2.60;;;15.90;1.00;;;;;;5032431;28;20214;-74
2023/07/19 08:20:09;;;;;;;2.80;2.60;;;15.90;1.00;;;;;;5032507;28;20174;-75
2023/07/19 08:22:37;;;;;;;3.60;2.33;;;15.90;1.00;;;;;;5031063;28;20557;-73
2023/07/19 08:25:05;;;;;;;2.60;2.40;;;15.90;1.00;;;;;;5032120;28;20430;-74
2023/07/19 08:27:32;;;;;;;3.83;2.20;;;16.00;1.00;;;;;;5033092;28;20434;-70
2023/07/19 08:30:00;;;;;;;2.53;2.33;;;15.90;1.00;;;;;;5033328;28;20897;-67
2023/07/19 08:32:26;;;;;;;5.10;2.17;;;15.90;1.00;;;;;;5031360;28;20426;-74
2023/07/19 08:34:51;;;;;;;2.47;2.27;;;15.90;1.00;;;;;;5030707;28;20800;-75
2023/07/19 08:37:18;;;;;;;2.53;2.33;;;15.90;1.00;;;;;;5031836;28;20434;-70
2023/07/19 08:39:44;;;;;;;3.17;2.57;;;15.80;1.00;;;;;;5035016;28;20168;-73
2023/07/19 08:42:09;;;;;;;3.57;2.70;;;15.70;1.00;;;;;;5036735;28;20417;-67
2023/07/19 08:44:37;;;;;;;6.43;2.70;;;15.80;1.00;;;;;;5036068;28;20172;-71
2023/07/19 08:47:06;;;;;;;4.87;3.37;;;15.90;1.00;;;;;;5035697;28;20592;-68
2023/07/19 08:49:34;;;;;;;5.10;3.10;;;15.80;1.00;;;;;;5016875;28;20450;-70
2023/07/19 08:52:02;;;;;;;3.27;3.07;;;15.90;1.00;;;;;;5035600;28;20449;-68
2023/07/19 08:54:28;;;;;;;3.63;2.70;;;15.90;1.00;;;;;;5036206;28;20507;-76
2023/07/19 08:56:54;;;;;;;3.00;2.80;;;15.90;1.00;;;;;;5033613;28;20438;-74
2023/07/19 08:59:20;;;;;;;3.00;2.63;;;15.90;1.00;;;;;;5036707;28;20406;-76
2023/07/19 09:01:46;;;;;;;3.43;2.23;;;15.90;1.00;;;;;;5036371;28;20191;-67
2023/07/19 09:04:11;;;;;;;2.90;2.23;;;15.90;1.00;;;;;;5032647;28;20933;-75
2023/07/19 09:06:39;;;;;;;5.17;3.07;;;15.80;1.00;;;;;;5015807;28;20208;-75
2023/07/19 09:09:09;;;;;;;3.20;2.90;;;15.80;1.00;;;;;;5016224;28;20522;-69
2023/07/19 09:11:34;;;;;;;4.23;2.73;;;15.70;1.00;;;;;;5016398;28;20903;-68
2023/07/19 09:14:00;;;;;;;3.53;2.50;;;15.70;1.00;;;;;;5015965;28;20407;-72
2023/07/19 09:16:32;;;;;;;3.07;2.77;;;15.70;1.00;;;;;;5014842;28;20311;-74
2023/07/19 09:19:00;;;;;;;2.20;2.10;;;15.80;1.00;;;;;;5016030;28;20169;-71
2023/07/19 09:21:44;;;;;;;2.27;2.10;;;15.80;1.00;;;;;;5015602;28;20411;-72
2023/07/19 09:24:11;;;;;;;3.30;2.07;;;15.70;1.00;;;;;;5016392;28;20888;-67
2023/07/19 09:27:03;;;;;;;2.80;2.50;;;15.70;1.00;;;;;;5015140;28;20434;-68
2023/07/19 09:29:30;;;;;;;4.60;2.57;;;15.80;1.00;;;;;;5015028;28;20414;-69
2023/07/19 09:32:02;;;;;;;2.83;2.57;;;15.80;1.00;;;;;;5016220;28;20498;-68
2023/07/19 09:34:35;;;;;;;2.50;2.30;;;15.80;1.00;;;;;;5023172;28;20458;-75
2023/07/19 09:37:02;;;;;;;3.23;2.60;;;15.90;1.00;;;;;;5034639;28;20445;-68
2023/07/19 09:39:29;;;;;;;3.83;2.50;;;15.90;1.00;;;;;;5034839;28;20819;-73
2023/07/19 09:41:56;;;;;;;3.50;1.87;;;15.90;1.00;;;;;;5035626;28;20438;-75
2023/07/19 09:44:22;;;;;;;2.73;2.53;;;16.00;1.00;;;;;;5034522;28;20419;-68
2023/07/19 09:46:49;;;;;;;2.47;2.37;;;16.00;1.00;;;;;;5033340;28;20827;-75
2023/07/19 09:49:14;;;;;;;2.00;1.90;;;16.00;1.00;;;;;;5033120;28;20484;-76
2023/07/19 09:51:41;;;;;;;5.23;2.30;;;15.90;1.00;;;;;;5026627;28;20431;-68
2023/07/19 09:54:11;;;;;;;3.10;2.80;;;15.90;1.00;;;;;;5013727;28;20184;-75
2023/07/19 09:56:38;;;;;;;6.37;2.53;;;15.90;1.00;;;;;;5012834;28;20948;-76
2023/07/19 09:59:14;;;;;;;3.07;2.87;;;15.90;1.00;;;;;;5028283;28;20492;-68
2023/07/19 10:01:40;;;;;;;3.70;3.10;;;15.90;1.00;;;;;;5035523;28;20409;-75
2023/07/19 10:04:25;;;;;;;5.83;2.70;;;15.90;1.00;;;;;;5034095;28;20454;-68
2023/07/19 10:07:17;;;;;;;3.10;2.90;;;15.90;1.00;;;;;;5034164;28;20445;-76
2023/07/19 10:09:45;;;;;;;3.30;2.97;;;15.80;1.00;;;;;;5035027;28;20429;-69
2023/07/19 10:12:16;;;;;;;3.20;2.80;;;15.80;1.00;;;;;;5034513;28;20436;-76
2023/07/19 10:15:04;;;;;;;3.50;3.23;;;15.80;1.00;;;;;;5035072;28;20442;-68
2023/07/19 10:17:42;;;;;;;3.40;3.10;;;15.80;1.00;;;;;;5033010;28;20450;-68
2023/07/19 10:20:10;;;;;;;4.50;2.80;;;15.80;1.00;;;;;;5035180;28;20413;-76
2023/07/19 10:22:59;;;;;;;2.87;2.60;;;15.70;1.00;;;;;;5033011;28;20907;-73
2023/07/19 10:25:31;;;;;;;6.33;2.40;;;15.70;1.00;;;;;;5033810;28;20402;-67
2023/07/19 10:28:08;;;;;;;2.47;2.27;;;15.60;1.00;;;;;;5034159;28;20426;-68
2023/07/19 10:30:46;;;;;;;2.23;2.07;;;15.50;1.00;;;;;;5033713;28;20425;-75
2023/07/19 10:33:13;;;;;;;1.80;1.70;;;15.60;1.00;;;;;;5032682;28;20462;-69
2023/07/19 10:35:39;;;;;;;2.80;2.03;;;15.70;1.00;;;;;;5033754;28;20484;-71
2023/07/19 10:38:11;;;;;;;2.90;2.70;;;15.70;1.00;;;;;;5034652;28;20929;-75
2023/07/19 10:40:37;;;;;;;2.80;2.60;;;15.80;1.00;;;;;;5033625;28;20445;-68
2023/07/19 10:43:03;;;;;;;3.80;3.00;;;15.70;1.00;;;;;;5034431;28;20438;-74
2023/07/19 10:45:29;;;;;;;3.13;2.90;;;15.80;1.00;;;;;;5016342;28;20192;-75
2023/07/19 10:47:59;;;;;;;3.80;3.00;;;15.70;1.00;;;;;;5014707;28;20222;-68
2023/07/19 10:50:25;;;;;;;3.23;3.00;;;15.80;1.00;;;;;;5014565;28;20414;-76
2023/07/19 10:52:51;;;;;;;3.10;2.90;;;15.80;1.00;;;;;;5013860;28;20468;-75
2023/07/19 10:55:17;;;;;;;7.23;2.80;;;15.80;1.00;;;;;;5013543;28;20248;-69
2023/07/19 10:57:42;;;;;;;4.10;2.50;;;15.70;1.00;;;;;;5014396;28;20435;-69
2023/07/19 11:00:12;;;;;;;3.23;2.93;;;15.90;1.00;;;;;;5027737;28;20191;-68
2023/07/19 11:02:41;;;;;;;3.33;2.50;;;15.90;1.00;;;;;;5013604;28;20434;-67
2023/07/19 11:05:08;;;;;;;1.90;1.70;;;16.00;1.00;;;;;;5012850;28;20872;-68
2023/07/19 11:07:35;;;;;;;3.00;2.80;;;15.90;1.00;;;;;;5014028;28;20446;-68
2023/07/19 11:10:05;;;;;;;2.97;2.63;;;15.80;1.00;;;;;;5012599;28;20414;-71
2023/07/19 11:12:31;;;;;;;2.57;2.47;;;15.80;1.00;;;;;;5013815;28;20423;-76
2023/07/19 11:15:00;;;;;;;3.23;3.03;;;15.80;1.00;;;;;;5026322;28;20878;-72
2023/07/19 11:17:30;;;;;;;3.97;3.77;;;15.70;1.00;;;;;;5012363;28;20432;-68
2023/07/19 11:19:58;;;;;;;4.57;4.27;;;15.60;1.00;;;;;;5014238;28;20408;-76
2023/07/19 11:22:25;;;;;;;5.83;5.33;;;15.70;1.00;;;;;;5013363;28;20395;-76
2023/07/19 11:24:53;;;;;;;5.80;5.40;;;15.60;1.00;;;;;;5014141;28;20809;-70
2023/07/19 11:27:32;;;;;;;6.70;6.00;;;15.70;1.00;;;;;;5013001;28;20435;-74
2023/07/19 11:29:57;;;;;;;7.53;5.00;;;15.80;1.00;;;;;;5013243;28;20435;-75
2023/07/19 11:32:23;;;;;;;5.10;4.80;;;15.80;1.00;;;;;;5013938;28;20827;-75
2023/07/19 11:34:51;;;;;;;3.70;3.50;;;15.80;1.00;;;;;;5013833;28;20196;-74
2023/07/19 11:37:31;;;;;;;3.10;2.90;;;15.90;1.00;;;;;;5013213;28;20419;-69
2023/07/19 11:39:57;;;;;;;3.23;3.03;;;15.80;1.00;;;;;;5013106;28;20430;-74
2023/07/19 11:42:43;;;;;;;5.40;4.10;;;15.70;1.00;;;;;;5013941;28;20901;-76
2023/07/19 11:45:17;;;;;;;3.43;3.13;;;15.70;1.00;;;;;;5012490;28;20476;-69
2023/07/19 11:47:44;;;;;;;2.83;2.63;;;15.80;1.00;;;;;;5014304;28;20474;-68
2023/07/19 11:50:11;;;;;;;2.27;2.17;;;15.90;1.00;;;;;;5014575;28;20426;-77
2023/07/19 11:52:46;;;;;;;2.37;2.10;;;15.90;1.00;;;;;;5013779;28;20422;-68
2023/07/19 11:55:14;;;;;;;2.07;1.97;;;16.10;1.00;;;;;;5015219;28;20553;-69
2023/07/19 11:57:41;;;;;;;3.00;2.00;;;15.90;1.00;;;;;;5032352;28;20469;-76
2023/07/19 12:00:09;;;;;;;5.00;1.80;;;15.80;1.00;;;;;;5032818;28;20489;-77
2023/07/19 12:02:36;;;;;;;3.60;1.80;;;15.90;1.00;;;;;;5031472;28;20442;-79
2023/07/19 12:05:05;;;;;;;2.20;2.10;;;16.00;1.00;;;;;;5032634;28;20400;-71
2023/07/19 12:07:32;;;;;;;2.00;1.90;;;16.10;1.00;;;;;;5033247;28;20987;-70
2023/07/19 12:10:01;;;;;;;1.60;1.50;;;16.30;1.00;;;;;;5033119;28;20510;-68
2023/07/19 12:12:26;;;;;;;1.90;1.77;;;16.60;1.00;;;;;;5032839;28;20461;-68
2023/07/19 12:14:52;;;;;;;2.07;1.97;;;16.70;1.00;;;;;;5035578;28;21023;-77
2023/07/19 12:17:18;;;;;;;1.77;1.67;;;16.80;1.00;;;;;;5036187;28;20812;-71
2023/07/19 12:19:44;;;;;;;2.80;2.60;;;16.90;1.00;;;;;;5035929;28;20566;-68
2023/07/19 12:22:09;;;;;;;1.73;1.60;;;17.10;1.00;;;;;;5036577;28;20163;-69
2023/07/19 12:24:35;;;;;;;1.93;1.83;;;17.30;1.00;;;;;;5035017;28;20183;-68
2023/07/19 12:27:00;;;;;;;1.80;1.70;;;17.50;1.00;;;;;;5020856;28;20206;-75
2023/07/19 12:29:26;;;;;;;2.30;1.70;;;17.90;1.00;;;;;;5016886;28;20178;-75
2023/07/19 12:31:52;;;;;;;8.93;5.60;;;18.60;1.00;;;;;;5018929;28;20165;-76
2023/07/19 12:34:20;;;;;;;3.00;2.70;;;19.60;1.00;;;;;;5034693;28;20182;-76
2023/07/19 12:36:47;;;;;;;2.20;1.30;;;20.10;1.00;;;;;;5035990;28;20505;-71
2023/07/19 12:39:14;;;;;;;1.13;1.00;;;20.50;1.00;;;;;;5035330;28;20422;-73
2023/07/19 12:41:40;;;;;;;3.60;2.83;;;20.90;1.00;;;;;;5036864;28;20421;-76
2023/07/19 12:44:06;;;;;;;1.10;0.93;;;21.40;1.00;;;;;;5035717;28;20817;-68
2023/07/19 12:46:32;;;;;;;1.60;1.00;;;21.90;99.90;;;;;;5035851;28;20428;-71
2023/07/19 12:48:58;;;;;;;1.17;1.07;;;21.90;99.90;;;;;;5036858;28;20429;-76
2023/07/19 12:51:24;;;;;;;1.43;1.00;;;21.70;99.90;;;;;;5036583;28;20402;-76